sensor_id;sensor_type;location;lat;lon;timestamp;temperature;humidity
8099;DHT22;4092;47.876;9.372;2022-07-15T00:01:02;19.20;96.50
8099;DHT22;4092;47.876;9.372;2022-07-15T00:03:29;19.20;97.00
8099;DHT22;4092;47.876;9.372;2022-07-15T00:05:57;19.20;96.90
8099;DHT22;4092;47.876;9.372;2022-07-15T00:08:25;19.10;96.80
8099;DHT22;4092;47.876;9.372;2022-07-15T00:10:54;19.10;97.00
8099;DHT22;4092;47.876;9.372;2022-07-15T00:13:22;19.00;97.20
8099;DHT22;4092;47.876;9.372;2022-07-15T00:15:50;19.00;97.20
8099;DHT22;4092;47.876;9.372;2022-07-15T00:18:17;19.00;97.80
8099;DHT22;4092;47.876;9.372;2022-07-15T00:20:44;19.00;97.30
8099;DHT22;4092;47.876;9.372;2022-07-15T00:23:11;19.00;97.40
8099;DHT22;4092;47.876;9.372;2022-07-15T00:25:40;19.00;97.50
8099;DHT22;4092;47.876;9.372;2022-07-15T00:28:07;19.00;97.40
8099;DHT22;4092;47.876;9.372;2022-07-15T00:30:36;19.00;97.60
8099;DHT22;4092;47.876;9.372;2022-07-15T00:33:04;18.90;97.70
8099;DHT22;4092;47.876;9.372;2022-07-15T00:35:32;19.00;98.00
8099;DHT22;4092;47.876;9.372;2022-07-15T00:38:00;19.00;98.40
8099;DHT22;4092;47.876;9.372;2022-07-15T00:40:27;18.90;98.10
8099;DHT22;4092;47.876;9.372;2022-07-15T00:42:56;18.90;98.10
8099;DHT22;4092;47.876;9.372;2022-07-15T00:45:24;18.90;97.90
8099;DHT22;4092;47.876;9.372;2022-07-15T00:47:53;18.90;98.00
8099;DHT22;4092;47.876;9.372;2022-07-15T00:50:25;18.90;98.30
8099;DHT22;4092;47.876;9.372;2022-07-15T00:52:54;18.80;98.10
8099;DHT22;4092;47.876;9.372;2022-07-15T00:55:23;18.80;98.30
8099;DHT22;4092;47.876;9.372;2022-07-15T00:57:54;18.80;98.30
8099;DHT22;4092;47.876;9.372;2022-07-15T01:00:23;18.80;98.30
8099;DHT22;4092;47.876;9.372;2022-07-15T01:02:52;18.70;98.40
8099;DHT22;4092;47.876;9.372;2022-07-15T01:05:21;18.70;98.60
8099;DHT22;4092;47.876;9.372;2022-07-15T01:07:49;18.70;98.70
8099;DHT22;4092;47.876;9.372;2022-07-15T01:10:17;18.70;98.70
8099;DHT22;4092;47.876;9.372;2022-07-15T01:12:46;18.60;98.70
8099;DHT22;4092;47.876;9.372;2022-07-15T01:15:13;18.60;98.90
8099;DHT22;4092;47.876;9.372;2022-07-15T01:17:43;18.50;99.80
8099;DHT22;4092;47.876;9.372;2022-07-15T01:20:11;18.50;99.60
8099;DHT22;4092;47.876;9.372;2022-07-15T01:22:41;18.40;99.70
8099;DHT22;4092;47.876;9.372;2022-07-15T01:25:08;18.30;99.90
8099;DHT22;4092;47.876;9.372;2022-07-15T01:27:35;18.20;99.80
8099;DHT22;4092;47.876;9.372;2022-07-15T01:30:04;18.10;99.90
8099;DHT22;4092;47.876;9.372;2022-07-15T01:32:31;18.10;99.90
8099;DHT22;4092;47.876;9.372;2022-07-15T01:34:58;18.10;99.90
8099;DHT22;4092;47.876;9.372;2022-07-15T01:37:25;18.10;99.30
8099;DHT22;4092;47.876;9.372;2022-07-15T01:39:54;18.10;99.20
8099;DHT22;4092;47.876;9.372;2022-07-15T01:42:21;18.10;99.40
8099;DHT22;4092;47.876;9.372;2022-07-15T01:44:48;18.10;99.10
8099;DHT22;4092;47.876;9.372;2022-07-15T01:47:16;18.10;99.20
8099;DHT22;4092;47.876;9.372;2022-07-15T01:49:43;18.00;99.10
8099;DHT22;4092;47.876;9.372;2022-07-15T01:52:10;18.00;99.10
8099;DHT22;4092;47.876;9.372;2022-07-15T01:54:37;18.00;99.20
8099;DHT22;4092;47.876;9.372;2022-07-15T01:57:06;18.00;99.00
8099;DHT22;4092;47.876;9.372;2022-07-15T01:59:33;17.90;99.30
8099;DHT22;4092;47.876;9.372;2022-07-15T02:02:00;17.90;99.20
8099;DHT22;4092;47.876;9.372;2022-07-15T02:04:27;17.80;99.40
8099;DHT22;4092;47.876;9.372;2022-07-15T02:06:54;17.70;99.70
8099;DHT22;4092;47.876;9.372;2022-07-15T02:09:21;17.70;99.80
8099;DHT22;4092;47.876;9.372;2022-07-15T02:11:48;17.70;99.90
8099;DHT22;4092;47.876;9.372;2022-07-15T02:14:17;17.70;99.90
8099;DHT22;4092;47.876;9.372;2022-07-15T02:16:45;17.60;99.90
8099;DHT22;4092;47.876;9.372;2022-07-15T02:19:12;17.60;99.90
8099;DHT22;4092;47.876;9.372;2022-07-15T02:21:39;17.60;99.90
8099;DHT22;4092;47.876;9.372;2022-07-15T02:24:06;17.50;99.90
8099;DHT22;4092;47.876;9.372;2022-07-15T02:26:33;17.40;99.90
8099;DHT22;4092;47.876;9.372;2022-07-15T02:29:00;17.40;99.90
8099;DHT22;4092;47.876;9.372;2022-07-15T02:31:29;17.40;99.90
8099;DHT22;4092;47.876;9.372;2022-07-15T02:33:56;17.30;99.90
8099;DHT22;4092;47.876;9.372;2022-07-15T02:36:23;17.30;99.90
8099;DHT22;4092;47.876;9.372;2022-07-15T02:38:50;17.30;99.90
8099;DHT22;4092;47.876;9.372;2022-07-15T02:41:17;17.20;99.90
8099;DHT22;4092;47.876;9.372;2022-07-15T02:43:44;17.20;99.90
8099;DHT22;4092;47.876;9.372;2022-07-15T02:46:12;17.20;99.90
8099;DHT22;4092;47.876;9.372;2022-07-15T02:48:40;17.10;99.90
8099;DHT22;4092;47.876;9.372;2022-07-15T02:51:08;17.10;99.90
8099;DHT22;4092;47.876;9.372;2022-07-15T02:53:35;17.10;99.90
8099;DHT22;4092;47.876;9.372;2022-07-15T02:56:03;17.10;99.90
8099;DHT22;4092;47.876;9.372;2022-07-15T02:58:30;17.00;99.90
8099;DHT22;4092;47.876;9.372;2022-07-15T03:00:58;17.00;99.90
8099;DHT22;4092;47.876;9.372;2022-07-15T03:03:25;16.90;99.90
8099;DHT22;4092;47.876;9.372;2022-07-15T03:05:55;16.90;99.90
8099;DHT22;4092;47.876;9.372;2022-07-15T03:08:23;16.90;99.90
8099;DHT22;4092;47.876;9.372;2022-07-15T03:10:50;16.90;99.90
8099;DHT22;4092;47.876;9.372;2022-07-15T03:13:17;16.90;99.90
8099;DHT22;4092;47.876;9.372;2022-07-15T03:15:44;16.80;99.90
8099;DHT22;4092;47.876;9.372;2022-07-15T03:18:11;16.80;99.90
8099;DHT22;4092;47.876;9.372;2022-07-15T03:20:38;16.70;99.90
8099;DHT22;4092;47.876;9.372;2022-07-15T03:23:07;16.80;99.90
8099;DHT22;4092;47.876;9.372;2022-07-15T03:25:35;16.70;99.90
8099;DHT22;4092;47.876;9.372;2022-07-15T03:28:02;16.70;99.90
8099;DHT22;4092;47.876;9.372;2022-07-15T03:30:29;16.60;99.90
8099;DHT22;4092;47.876;9.372;2022-07-15T03:32:56;16.60;99.90
8099;DHT22;4092;47.876;9.372;2022-07-15T03:35:23;16.60;99.90
8099;DHT22;4092;47.876;9.372;2022-07-15T03:37:50;16.60;99.90
8099;DHT22;4092;47.876;9.372;2022-07-15T03:40:19;16.60;99.90
8099;DHT22;4092;47.876;9.372;2022-07-15T03:42:46;16.60;99.90
8099;DHT22;4092;47.876;9.372;2022-07-15T03:45:13;16.50;99.90
8099;DHT22;4092;47.876;9.372;2022-07-15T03:47:40;16.50;99.90
8099;DHT22;4092;47.876;9.372;2022-07-15T03:50:08;16.50;99.90
8099;DHT22;4092;47.876;9.372;2022-07-15T03:52:35;16.50;99.90
8099;DHT22;4092;47.876;9.372;2022-07-15T03:55:02;16.50;99.90
8099;DHT22;4092;47.876;9.372;2022-07-15T03:57:31;16.60;99.90
8099;DHT22;4092;47.876;9.372;2022-07-15T03:59:58;16.50;99.90
8099;DHT22;4092;47.876;9.372;2022-07-15T04:02:25;16.50;99.90
8099;DHT22;4092;47.876;9.372;2022-07-15T04:04:52;16.50;99.90
8099;DHT22;4092;47.876;9.372;2022-07-15T04:07:19;16.50;99.90
8099;DHT22;4092;47.876;9.372;2022-07-15T04:09:46;16.50;99.90
8099;DHT22;4092;47.876;9.372;2022-07-15T04:12:13;16.60;99.90
8099;DHT22;4092;47.876;9.372;2022-07-15T04:14:42;16.50;99.90
8099;DHT22;4092;47.876;9.372;2022-07-15T04:17:09;16.50;99.90
8099;DHT22;4092;47.876;9.372;2022-07-15T04:19:36;16.50;99.90
8099;DHT22;4092;47.876;9.372;2022-07-15T04:22:03;16.50;99.90
8099;DHT22;4092;47.876;9.372;2022-07-15T04:24:30;16.50;99.90
8099;DHT22;4092;47.876;9.372;2022-07-15T04:26:57;16.40;99.90
8099;DHT22;4092;47.876;9.372;2022-07-15T04:29:24;16.40;99.90
8099;DHT22;4092;47.876;9.372;2022-07-15T04:31:52;16.50;99.90
8099;DHT22;4092;47.876;9.372;2022-07-15T04:34:19;16.50;99.90
8099;DHT22;4092;47.876;9.372;2022-07-15T04:36:46;16.60;99.90
8099;DHT22;4092;47.876;9.372;2022-07-15T04:39:14;16.60;99.80
8099;DHT22;4092;47.876;9.372;2022-07-15T04:41:41;16.70;99.90
8099;DHT22;4092;47.876;9.372;2022-07-15T04:44:08;16.60;99.70
8099;DHT22;4092;47.876;9.372;2022-07-15T04:46:35;16.60;99.60
8099;DHT22;4092;47.876;9.372;2022-07-15T04:49:03;16.60;99.90
8099;DHT22;4092;47.876;9.372;2022-07-15T04:51:48;16.60;99.60
8099;DHT22;4092;47.876;9.372;2022-07-15T04:54:15;16.60;99.60
8099;DHT22;4092;47.876;9.372;2022-07-15T04:56:42;16.70;99.90
8099;DHT22;4092;47.876;9.372;2022-07-15T04:59:09;16.70;99.50
8099;DHT22;4092;47.876;9.372;2022-07-15T05:01:36;16.70;99.30
8099;DHT22;4092;47.876;9.372;2022-07-15T05:04:04;16.80;99.50
8099;DHT22;4092;47.876;9.372;2022-07-15T05:06:32;16.80;99.30
8099;DHT22;4092;47.876;9.372;2022-07-15T05:08:59;16.80;99.40
8099;DHT22;4092;47.876;9.372;2022-07-15T05:11:26;16.70;99.10
8099;DHT22;4092;47.876;9.372;2022-07-15T05:13:53;16.80;99.30
8099;DHT22;4092;47.876;9.372;2022-07-15T05:16:20;16.80;99.50
8099;DHT22;4092;47.876;9.372;2022-07-15T05:18:47;16.70;99.30
8099;DHT22;4092;47.876;9.372;2022-07-15T05:21:15;16.80;99.30
8099;DHT22;4092;47.876;9.372;2022-07-15T05:23:43;16.80;99.30
8099;DHT22;4092;47.876;9.372;2022-07-15T05:26:10;16.80;99.10
8099;DHT22;4092;47.876;9.372;2022-07-15T05:28:38;16.80;99.20
8099;DHT22;4092;47.876;9.372;2022-07-15T05:31:06;16.80;99.60
8099;DHT22;4092;47.876;9.372;2022-07-15T05:33:33;16.80;99.70
8099;DHT22;4092;47.876;9.372;2022-07-15T05:36:00;16.80;99.70
8099;DHT22;4092;47.876;9.372;2022-07-15T05:38:29;16.90;99.40
8099;DHT22;4092;47.876;9.372;2022-07-15T05:40:56;16.90;99.10
8099;DHT22;4092;47.876;9.372;2022-07-15T05:43:23;17.00;99.70
8099;DHT22;4092;47.876;9.372;2022-07-15T05:45:50;17.00;99.50
8099;DHT22;4092;47.876;9.372;2022-07-15T05:48:17;17.00;99.90
8099;DHT22;4092;47.876;9.372;2022-07-15T05:50:44;17.00;99.80
8099;DHT22;4092;47.876;9.372;2022-07-15T05:53:11;17.00;99.60
8099;DHT22;4092;47.876;9.372;2022-07-15T05:55:40;17.00;99.80
8099;DHT22;4092;47.876;9.372;2022-07-15T05:58:08;17.10;99.60
8099;DHT22;4092;47.876;9.372;2022-07-15T06:00:36;17.10;99.90
8099;DHT22;4092;47.876;9.372;2022-07-15T06:03:04;17.10;99.70
8099;DHT22;4092;47.876;9.372;2022-07-15T06:05:32;17.20;99.80
8099;DHT22;4092;47.876;9.372;2022-07-15T06:07:59;17.20;98.40
8099;DHT22;4092;47.876;9.372;2022-07-15T06:10:27;17.30;98.30
8099;DHT22;4092;47.876;9.372;2022-07-15T06:12:55;17.40;98.60
8099;DHT22;4092;47.876;9.372;2022-07-15T06:15:22;17.40;98.40
8099;DHT22;4092;47.876;9.372;2022-07-15T06:17:49;17.40;98.70
8099;DHT22;4092;47.876;9.372;2022-07-15T06:20:17;17.50;98.50
8099;DHT22;4092;47.876;9.372;2022-07-15T06:22:44;17.60;98.70
8099;DHT22;4092;47.876;9.372;2022-07-15T06:25:12;17.70;98.80
8099;DHT22;4092;47.876;9.372;2022-07-15T06:27:39;17.70;98.00
8099;DHT22;4092;47.876;9.372;2022-07-15T06:30:08;17.80;97.50
8099;DHT22;4092;47.876;9.372;2022-07-15T06:32:36;17.90;97.60
8099;DHT22;4092;47.876;9.372;2022-07-15T06:35:03;17.90;97.80
8099;DHT22;4092;47.876;9.372;2022-07-15T06:37:31;18.00;98.30
8099;DHT22;4092;47.876;9.372;2022-07-15T06:39:59;18.10;97.60
8099;DHT22;4092;47.876;9.372;2022-07-15T06:42:26;18.10;97.10
8099;DHT22;4092;47.876;9.372;2022-07-15T06:44:53;18.20;97.10
8099;DHT22;4092;47.876;9.372;2022-07-15T06:47:22;18.30;96.70
8099;DHT22;4092;47.876;9.372;2022-07-15T06:49:49;18.30;96.70
8099;DHT22;4092;47.876;9.372;2022-07-15T06:52:16;18.40;96.90
8099;DHT22;4092;47.876;9.372;2022-07-15T06:54:44;18.40;96.60
8099;DHT22;4092;47.876;9.372;2022-07-15T06:57:11;18.50;97.30
8099;DHT22;4092;47.876;9.372;2022-07-15T06:59:40;18.60;97.10
8099;DHT22;4092;47.876;9.372;2022-07-15T07:02:07;18.70;97.30
8099;DHT22;4092;47.876;9.372;2022-07-15T07:04:35;18.70;96.60
8099;DHT22;4092;47.876;9.372;2022-07-15T07:07:02;18.80;97.20
8099;DHT22;4092;47.876;9.372;2022-07-15T07:09:29;18.80;97.10
8099;DHT22;4092;47.876;9.372;2022-07-15T07:11:56;19.00;97.70
8099;DHT22;4092;47.876;9.372;2022-07-15T07:14:23;19.00;97.10
8099;DHT22;4092;47.876;9.372;2022-07-15T07:16:50;19.10;96.90
8099;DHT22;4092;47.876;9.372;2022-07-15T07:19:17;19.00;96.40
8099;DHT22;4092;47.876;9.372;2022-07-15T07:21:46;19.10;96.30
8099;DHT22;4092;47.876;9.372;2022-07-15T07:24:13;19.10;97.30
8099;DHT22;4092;47.876;9.372;2022-07-15T07:26:40;19.20;97.60
8099;DHT22;4092;47.876;9.372;2022-07-15T07:29:07;19.40;98.50
8099;DHT22;4092;47.876;9.372;2022-07-15T07:31:35;19.50;97.50
8099;DHT22;4092;47.876;9.372;2022-07-15T07:34:02;19.60;97.50
8099;DHT22;4092;47.876;9.372;2022-07-15T07:36:29;19.60;97.10
8099;DHT22;4092;47.876;9.372;2022-07-15T07:38:58;19.70;97.10
8099;DHT22;4092;47.876;9.372;2022-07-15T07:41:25;19.70;97.70
8099;DHT22;4092;47.876;9.372;2022-07-15T07:43:54;19.80;97.10
8099;DHT22;4092;47.876;9.372;2022-07-15T07:46:21;19.80;96.80
8099;DHT22;4092;47.876;9.372;2022-07-15T07:48:48;19.90;97.30
8099;DHT22;4092;47.876;9.372;2022-07-15T07:51:16;20.10;97.70
8099;DHT22;4092;47.876;9.372;2022-07-15T07:53:44;20.20;97.00
8099;DHT22;4092;47.876;9.372;2022-07-15T07:56:13;20.30;96.90
8099;DHT22;4092;47.876;9.372;2022-07-15T07:58:40;20.30;97.20
8099;DHT22;4092;47.876;9.372;2022-07-15T08:01:07;20.40;97.10
8099;DHT22;4092;47.876;9.372;2022-07-15T08:03:35;20.50;98.00
8099;DHT22;4092;47.876;9.372;2022-07-15T08:06:02;20.70;97.40
8099;DHT22;4092;47.876;9.372;2022-07-15T08:08:29;20.80;96.40
8099;DHT22;4092;47.876;9.372;2022-07-15T08:10:57;20.80;97.20
8099;DHT22;4092;47.876;9.372;2022-07-15T08:13:26;20.80;95.80
8099;DHT22;4092;47.876;9.372;2022-07-15T08:15:54;20.80;96.10
8099;DHT22;4092;47.876;9.372;2022-07-15T08:18:22;21.00;97.70
8099;DHT22;4092;47.876;9.372;2022-07-15T08:20:49;21.10;97.50
8099;DHT22;4092;47.876;9.372;2022-07-15T08:23:17;21.10;97.30
8099;DHT22;4092;47.876;9.372;2022-07-15T08:25:47;21.20;97.30
8099;DHT22;4092;47.876;9.372;2022-07-15T08:28:14;21.30;97.40
8099;DHT22;4092;47.876;9.372;2022-07-15T08:30:45;21.40;96.80
8099;DHT22;4092;47.876;9.372;2022-07-15T08:33:12;21.40;97.70
8099;DHT22;4092;47.876;9.372;2022-07-15T08:35:39;21.50;97.80
8099;DHT22;4092;47.876;9.372;2022-07-15T08:38:07;21.50;97.70
8099;DHT22;4092;47.876;9.372;2022-07-15T08:40:36;21.50;96.30
8099;DHT22;4092;47.876;9.372;2022-07-15T08:43:06;21.50;96.10
8099;DHT22;4092;47.876;9.372;2022-07-15T08:45:34;21.50;97.10
8099;DHT22;4092;47.876;9.372;2022-07-15T08:48:05;21.60;96.40
8099;DHT22;4092;47.876;9.372;2022-07-15T08:50:34;21.60;96.30
8099;DHT22;4092;47.876;9.372;2022-07-15T08:53:01;21.70;95.80
8099;DHT22;4092;47.876;9.372;2022-07-15T08:55:29;21.80;96.70
8099;DHT22;4092;47.876;9.372;2022-07-15T08:57:56;21.80;95.60
8099;DHT22;4092;47.876;9.372;2022-07-15T09:00:25;21.90;97.20
8099;DHT22;4092;47.876;9.372;2022-07-15T09:02:55;22.00;96.10
8099;DHT22;4092;47.876;9.372;2022-07-15T09:05:26;22.10;96.40
8099;DHT22;4092;47.876;9.372;2022-07-15T09:07:57;22.10;95.60
8099;DHT22;4092;47.876;9.372;2022-07-15T09:10:40;22.20;94.70
8099;DHT22;4092;47.876;9.372;2022-07-15T09:13:07;22.30;95.30
8099;DHT22;4092;47.876;9.372;2022-07-15T09:15:36;22.30;95.20
8099;DHT22;4092;47.876;9.372;2022-07-15T09:18:10;22.40;95.40
8099;DHT22;4092;47.876;9.372;2022-07-15T09:20:39;22.50;95.80
8099;DHT22;4092;47.876;9.372;2022-07-15T09:23:08;22.60;94.70
8099;DHT22;4092;47.876;9.372;2022-07-15T09:25:36;22.60;94.60
8099;DHT22;4092;47.876;9.372;2022-07-15T09:28:05;22.70;94.50
8099;DHT22;4092;47.876;9.372;2022-07-15T09:30:34;22.50;93.40
8099;DHT22;4092;47.876;9.372;2022-07-15T09:33:22;22.70;94.30
8099;DHT22;4092;47.876;9.372;2022-07-15T09:36:09;22.80;95.70
8099;DHT22;4092;47.876;9.372;2022-07-15T09:38:40;22.70;94.90
8099;DHT22;4092;47.876;9.372;2022-07-15T09:41:09;22.80;94.00
8099;DHT22;4092;47.876;9.372;2022-07-15T09:43:49;23.00;94.20
8099;DHT22;4092;47.876;9.372;2022-07-15T09:46:17;23.00;94.10
8099;DHT22;4092;47.876;9.372;2022-07-15T09:48:46;23.00;93.60
8099;DHT22;4092;47.876;9.372;2022-07-15T09:51:16;23.10;94.10
8099;DHT22;4092;47.876;9.372;2022-07-15T09:53:44;23.10;92.90
8099;DHT22;4092;47.876;9.372;2022-07-15T09:56:14;23.10;93.30
8099;DHT22;4092;47.876;9.372;2022-07-15T09:58:42;23.00;93.80
8099;DHT22;4092;47.876;9.372;2022-07-15T10:01:11;23.20;93.90
8099;DHT22;4092;47.876;9.372;2022-07-15T10:03:39;23.40;93.90
8099;DHT22;4092;47.876;9.372;2022-07-15T10:06:07;23.40;92.60
8099;DHT22;4092;47.876;9.372;2022-07-15T10:08:37;23.60;93.20
8099;DHT22;4092;47.876;9.372;2022-07-15T10:11:08;23.60;92.40
8099;DHT22;4092;47.876;9.372;2022-07-15T10:17:01;23.70;92.70
8099;DHT22;4092;47.876;9.372;2022-07-15T10:19:46;23.70;92.70
8099;DHT22;4092;47.876;9.372;2022-07-15T10:22:27;23.80;93.50
8099;DHT22;4092;47.876;9.372;2022-07-15T10:25:09;23.90;93.70
8099;DHT22;4092;47.876;9.372;2022-07-15T10:27:48;24.10;92.50
8099;DHT22;4092;47.876;9.372;2022-07-15T10:30:20;24.10;92.60
8099;DHT22;4092;47.876;9.372;2022-07-15T10:33:07;24.00;92.80
8099;DHT22;4092;47.876;9.372;2022-07-15T10:35:38;24.20;93.20
8099;DHT22;4092;47.876;9.372;2022-07-15T10:38:27;24.40;92.50
8099;DHT22;4092;47.876;9.372;2022-07-15T10:41:07;24.40;92.60
8099;DHT22;4092;47.876;9.372;2022-07-15T10:43:53;24.40;92.10
8099;DHT22;4092;47.876;9.372;2022-07-15T10:46:25;24.50;93.90
8099;DHT22;4092;47.876;9.372;2022-07-15T10:49:29;24.70;92.90
8099;DHT22;4092;47.876;9.372;2022-07-15T10:52:11;24.80;92.90
8099;DHT22;4092;47.876;9.372;2022-07-15T10:54:47;24.80;91.90
8099;DHT22;4092;47.876;9.372;2022-07-15T10:57:17;25.00;92.80
8099;DHT22;4092;47.876;9.372;2022-07-15T10:59:54;25.20;93.40
8099;DHT22;4092;47.876;9.372;2022-07-15T11:02:22;25.30;91.50
8099;DHT22;4092;47.876;9.372;2022-07-15T11:04:51;25.10;90.20
8099;DHT22;4092;47.876;9.372;2022-07-15T11:07:28;24.90;91.00
8099;DHT22;4092;47.876;9.372;2022-07-15T11:10:13;24.70;90.20
8099;DHT22;4092;47.876;9.372;2022-07-15T11:13:05;24.80;91.10
8099;DHT22;4092;47.876;9.372;2022-07-15T11:15:33;25.20;91.90
8099;DHT22;4092;47.876;9.372;2022-07-15T11:18:01;25.50;89.60
8099;DHT22;4092;47.876;9.372;2022-07-15T11:20:32;25.40;90.50
8099;DHT22;4092;47.876;9.372;2022-07-15T11:23:01;25.50;90.90
8099;DHT22;4092;47.876;9.372;2022-07-15T11:25:30;25.40;91.50
8099;DHT22;4092;47.876;9.372;2022-07-15T11:28:04;25.50;90.50
8099;DHT22;4092;47.876;9.372;2022-07-15T11:30:34;25.40;93.40
8099;DHT22;4092;47.876;9.372;2022-07-15T11:33:03;25.50;94.10
8099;DHT22;4092;47.876;9.372;2022-07-15T11:35:43;25.80;92.70
8099;DHT22;4092;47.876;9.372;2022-07-15T11:38:11;26.10;92.40
8099;DHT22;4092;47.876;9.372;2022-07-15T11:40:44;26.50;92.90
8099;DHT22;4092;47.876;9.372;2022-07-15T11:43:30;26.60;90.30
8099;DHT22;4092;47.876;9.372;2022-07-15T11:46:15;26.40;87.00
8099;DHT22;4092;47.876;9.372;2022-07-15T11:48:42;26.40;91.70
8099;DHT22;4092;47.876;9.372;2022-07-15T11:51:11;26.50;90.60
8099;DHT22;4092;47.876;9.372;2022-07-15T11:53:39;26.50;91.30
8099;DHT22;4092;47.876;9.372;2022-07-15T11:56:08;26.50;90.00
8099;DHT22;4092;47.876;9.372;2022-07-15T11:58:39;26.30;87.40
8099;DHT22;4092;47.876;9.372;2022-07-15T12:01:09;26.40;89.50
8099;DHT22;4092;47.876;9.372;2022-07-15T12:03:39;26.40;86.90
8099;DHT22;4092;47.876;9.372;2022-07-15T12:06:12;26.80;85.00
8099;DHT22;4092;47.876;9.372;2022-07-15T12:08:42;27.00;84.00
8099;DHT22;4092;47.876;9.372;2022-07-15T12:11:21;27.30;85.20
8099;DHT22;4092;47.876;9.372;2022-07-15T12:13:52;27.50;84.30
8099;DHT22;4092;47.876;9.372;2022-07-15T12:16:24;27.70;86.90
8099;DHT22;4092;47.876;9.372;2022-07-15T12:18:54;27.50;82.70
8099;DHT22;4092;47.876;9.372;2022-07-15T12:21:21;27.40;90.50
8099;DHT22;4092;47.876;9.372;2022-07-15T12:24:04;27.70;85.80
8099;DHT22;4092;47.876;9.372;2022-07-15T12:26:32;27.70;84.30
8099;DHT22;4092;47.876;9.372;2022-07-15T12:29:02;27.90;84.90
8099;DHT22;4092;47.876;9.372;2022-07-15T12:31:31;28.30;85.60
8099;DHT22;4092;47.876;9.372;2022-07-15T12:33:58;28.30;84.00
8099;DHT22;4092;47.876;9.372;2022-07-15T12:36:26;28.60;82.50
8099;DHT22;4092;47.876;9.372;2022-07-15T12:39:09;28.80;81.00
8099;DHT22;4092;47.876;9.372;2022-07-15T12:41:38;29.00;83.10
8099;DHT22;4092;47.876;9.372;2022-07-15T12:44:08;28.60;82.20
8099;DHT22;4092;47.876;9.372;2022-07-15T12:46:56;27.90;81.40
8099;DHT22;4092;47.876;9.372;2022-07-15T12:49:45;27.20;85.90
8099;DHT22;4092;47.876;9.372;2022-07-15T12:52:21;27.10;84.70
8099;DHT22;4092;47.876;9.372;2022-07-15T12:54:50;26.80;85.30
8099;DHT22;4092;47.876;9.372;2022-07-15T12:57:23;26.60;88.00
8099;DHT22;4092;47.876;9.372;2022-07-15T12:59:55;27.10;86.20
8099;DHT22;4092;47.876;9.372;2022-07-15T13:02:22;27.90;88.90
8099;DHT22;4092;47.876;9.372;2022-07-15T13:04:50;28.50;84.00
8099;DHT22;4092;47.876;9.372;2022-07-15T13:07:18;29.10;82.20
8099;DHT22;4092;47.876;9.372;2022-07-15T13:09:45;29.30;78.60
8099;DHT22;4092;47.876;9.372;2022-07-15T13:12:13;29.50;82.70
8099;DHT22;4092;47.876;9.372;2022-07-15T13:14:41;29.90;78.70
8099;DHT22;4092;47.876;9.372;2022-07-15T13:17:10;30.20;82.60
8099;DHT22;4092;47.876;9.372;2022-07-15T13:19:37;30.60;78.90
8099;DHT22;4092;47.876;9.372;2022-07-15T13:22:04;30.70;78.90
8099;DHT22;4092;47.876;9.372;2022-07-15T13:24:31;30.90;77.50
8099;DHT22;4092;47.876;9.372;2022-07-15T13:26:58;31.00;75.90
8099;DHT22;4092;47.876;9.372;2022-07-15T13:29:25;31.20;72.80
8099;DHT22;4092;47.876;9.372;2022-07-15T13:31:53;31.40;71.50
8099;DHT22;4092;47.876;9.372;2022-07-15T13:34:21;31.40;75.60
8099;DHT22;4092;47.876;9.372;2022-07-15T13:36:48;31.10;76.90
8099;DHT22;4092;47.876;9.372;2022-07-15T13:39:15;31.10;74.00
8099;DHT22;4092;47.876;9.372;2022-07-15T13:41:42;31.10;76.40
8099;DHT22;4092;47.876;9.372;2022-07-15T13:44:09;31.10;75.60
8099;DHT22;4092;47.876;9.372;2022-07-15T13:46:36;30.80;72.70
8099;DHT22;4092;47.876;9.372;2022-07-15T13:49:03;30.20;72.80
8099;DHT22;4092;47.876;9.372;2022-07-15T13:51:32;29.60;77.80
8099;DHT22;4092;47.876;9.372;2022-07-15T13:53:58;29.40;80.20
8099;DHT22;4092;47.876;9.372;2022-07-15T13:56:25;28.90;73.30
8099;DHT22;4092;47.876;9.372;2022-07-15T13:58:53;28.50;81.10
8099;DHT22;4092;47.876;9.372;2022-07-15T14:01:25;27.90;79.70
8099;DHT22;4092;47.876;9.372;2022-07-15T14:03:53;28.40;86.00
8099;DHT22;4092;47.876;9.372;2022-07-15T14:06:20;28.90;79.30
8099;DHT22;4092;47.876;9.372;2022-07-15T14:08:49;28.60;79.30
8099;DHT22;4092;47.876;9.372;2022-07-15T14:11:16;28.70;77.60
8099;DHT22;4092;47.876;9.372;2022-07-15T14:13:44;29.20;77.20
8099;DHT22;4092;47.876;9.372;2022-07-15T14:16:11;29.50;76.90
8099;DHT22;4092;47.876;9.372;2022-07-15T14:18:38;30.00;73.40
8099;DHT22;4092;47.876;9.372;2022-07-15T14:21:13;29.90;72.30
8099;DHT22;4092;47.876;9.372;2022-07-15T14:23:40;30.30;75.70
8099;DHT22;4092;47.876;9.372;2022-07-15T14:26:10;30.70;76.90
8099;DHT22;4092;47.876;9.372;2022-07-15T14:28:38;30.50;72.30
8099;DHT22;4092;47.876;9.372;2022-07-15T14:31:06;30.50;72.50
8099;DHT22;4092;47.876;9.372;2022-07-15T14:33:33;30.60;74.80
8099;DHT22;4092;47.876;9.372;2022-07-15T14:36:00;30.90;73.10
8099;DHT22;4092;47.876;9.372;2022-07-15T14:38:28;30.90;71.90
8099;DHT22;4092;47.876;9.372;2022-07-15T14:40:55;30.70;70.50
8099;DHT22;4092;47.876;9.372;2022-07-15T14:43:24;30.40;75.30
8099;DHT22;4092;47.876;9.372;2022-07-15T14:45:51;29.90;73.70
8099;DHT22;4092;47.876;9.372;2022-07-15T14:48:18;29.70;72.70
8099;DHT22;4092;47.876;9.372;2022-07-15T14:50:45;29.30;77.50
8099;DHT22;4092;47.876;9.372;2022-07-15T14:53:18;29.00;78.70
8099;DHT22;4092;47.876;9.372;2022-07-15T14:55:51;28.60;81.60
8099;DHT22;4092;47.876;9.372;2022-07-15T14:58:18;28.20;79.40
8099;DHT22;4092;47.876;9.372;2022-07-15T15:00:47;27.90;80.70
8099;DHT22;4092;47.876;9.372;2022-07-15T15:03:15;28.10;78.20
8099;DHT22;4092;47.876;9.372;2022-07-15T15:05:43;28.60;79.80
8099;DHT22;4092;47.876;9.372;2022-07-15T15:08:10;28.90;75.80
8099;DHT22;4092;47.876;9.372;2022-07-15T15:10:37;29.10;78.00
8099;DHT22;4092;47.876;9.372;2022-07-15T15:13:04;29.00;77.70
8099;DHT22;4092;47.876;9.372;2022-07-15T15:15:31;29.30;78.00
8099;DHT22;4092;47.876;9.372;2022-07-15T15:17:59;29.30;79.70
8099;DHT22;4092;47.876;9.372;2022-07-15T15:20:27;29.30;79.70
8099;DHT22;4092;47.876;9.372;2022-07-15T15:22:54;29.70;78.20
8099;DHT22;4092;47.876;9.372;2022-07-15T15:25:21;29.90;78.00
8099;DHT22;4092;47.876;9.372;2022-07-15T15:28:02;29.50;79.90
8099;DHT22;4092;47.876;9.372;2022-07-15T15:30:29;29.30;85.10
8099;DHT22;4092;47.876;9.372;2022-07-15T15:32:56;28.80;82.40
8099;DHT22;4092;47.876;9.372;2022-07-15T15:35:25;28.50;78.80
8099;DHT22;4092;47.876;9.372;2022-07-15T15:37:52;28.40;78.00
8099;DHT22;4092;47.876;9.372;2022-07-15T15:40:19;28.20;82.20
8099;DHT22;4092;47.876;9.372;2022-07-15T15:42:46;28.00;86.00
8099;DHT22;4092;47.876;9.372;2022-07-15T15:45:13;27.80;85.60
8099;DHT22;4092;47.876;9.372;2022-07-15T15:47:40;27.50;83.00
8099;DHT22;4092;47.876;9.372;2022-07-15T15:50:07;27.40;84.50
8099;DHT22;4092;47.876;9.372;2022-07-15T15:52:36;27.90;85.30
8099;DHT22;4092;47.876;9.372;2022-07-15T15:55:04;28.50;81.50
8099;DHT22;4092;47.876;9.372;2022-07-15T15:57:31;29.00;79.00
8099;DHT22;4092;47.876;9.372;2022-07-15T16:00:00;29.30;82.00
8099;DHT22;4092;47.876;9.372;2022-07-15T16:02:28;29.20;79.00
8099;DHT22;4092;47.876;9.372;2022-07-15T16:04:55;29.10;83.30
8099;DHT22;4092;47.876;9.372;2022-07-15T16:07:22;29.20;77.90
8099;DHT22;4092;47.876;9.372;2022-07-15T16:09:51;29.50;78.70
8099;DHT22;4092;47.876;9.372;2022-07-15T16:12:18;29.70;77.30
8099;DHT22;4092;47.876;9.372;2022-07-15T16:14:45;29.90;76.90
8099;DHT22;4092;47.876;9.372;2022-07-15T16:17:12;30.10;78.40